Green Fast — ZDHA9 — position and weather

sailwx.info

Track history (hours):
 
Tides and Currents Weather Stations Pressure Air Temp Water Temp Dewpoint Dewpoint Depression Visibility Wind Speed Wind Dir Waves Ship Positions

Green Fast

Last reported at 2014-Sep-01 20:12 UTC. Time now 2014-Sep-01 21:28 UTC.
Position N 40°42' E 000°59'.

Length 118 m; draft 7.4 m.

Type: Ship (hazmat cat A). MMSI: 236294000.

Date/timePositionNaut miles runAvg speedWind from/ knotsBaromVisibWave heightAir tempDewpointWater temp
2014-Sep-01 20:12N 40°42' E 000°59'2011.4
2014-Sep-01 18:28N 40°24' E 000°48'1211.6
2014-Sep-01 17:26N 40°15' E 000°38'1110.8
2014-Sep-01 16:23N 40°06' E 000°28'1411.1
2014-Sep-01 15:10N 39°55' E 000°17'811.1
2014-Sep-01 14:25N 39°49' E 000°10'910.5
2014-Sep-01 13:32N 39°42' E 000°03'1110.9
2014-Sep-01 12:33N 39°34' W 000°06'1110.8
2014-Sep-01 11:33N 39°26' W 000°16'3 3.0
2014-Sep-01 10:31N 39°27' W 000°19'0 0.0
2014-Sep-01 09:31N 39°27' W 000°19'0 0.0
2014-Sep-01 08:31N 39°27' W 000°19'0 0.0
2014-Sep-01 07:31N 39°27' W 000°19'0 0.0
2014-Sep-01 06:31N 39°27' W 000°19'0 0.0
2014-Sep-01 05:31N 39°27' W 000°19'0 0.0
2014-Sep-01 04:31N 39°27' W 000°19'0 0.5
2014-Sep-01 03:33N 39°27' W 000°19'4 3.9
2014-Sep-01 02:28N 39°24' W 000°15'0 0.0
2014-Sep-01 00:31N 39°24' W 000°15'0 0.0
2014-Aug-31 23:31N 39°24' W 000°15'0 0.0
2014-Aug-31 20:10N 39°24' W 000°15'0 0.0
2014-Aug-31 19:22N 39°24' W 000°15'0 0.0
2014-Aug-31 18:28N 39°24' W 000°15'1 1.4
2014-Aug-31 17:33N 39°23' W 000°14'6310.4
2014-Aug-31 11:28N 39°15' E 001°07'1010.3
2014-Aug-31 10:31N 39°13' E 001°19'1010.4
2014-Aug-31 09:33N 39°11' E 001°32'1110.5
2014-Aug-31 08:33N 39°10' E 001°46'1010.5
2014-Aug-31 07:33N 39°08' E 001°59'1110.5
2014-Aug-31 06:33N 39°07' E 002°13'1110.7
2014-Aug-31 05:33N 39°05' E 002°26'1110.9
2014-Aug-31 04:33N 39°03' E 002°40'1110.9
2014-Aug-31 03:33N 39°02' E 002°54'1110.8
2014-Aug-31 02:33N 39°01' E 003°08'1110.6
2014-Aug-31 01:33N 39°00' E 003°22'1010.5
2014-Aug-31 00:33N 38°60' E 003°35'1010.4
2014-Aug-30 23:33N 38°59' E 003°48'1010.4
2014-Aug-30 22:33N 38°59' E 004°02'1010.2
2014-Aug-30 21:32N 38°58' E 004°15'1210.7
2014-Aug-30 20:27N 38°58' E 004°30'22 9.9
2014-Aug-30 18:13N 38°57' E 004°58'710.3
2014-Aug-30 17:32N 38°57' E 005°07'1110.5
2014-Aug-30 16:32N 38°56' E 005°21'1010.6
2014-Aug-30 15:33N 38°56' E 005°34'2210.9
2014-Aug-30 13:30N 38°55' E 006°03'1111.1
2014-Aug-30 12:32N 38°54' E 006°17'1111.2
2014-Aug-30 11:33N 38°54' E 006°31'1111.2
2014-Aug-30 10:33N 38°53' E 006°45'1111.1
2014-Aug-30 09:33N 38°53' E 006°59'1111.0
2014-Aug-30 08:33N 38°52' E 007°14'1510.5
2014-Aug-30 07:10N 38°52' E 007°32'610.6
2014-Aug-30 06:33N 38°51' E 007°41'1410.1
2014-Aug-30 05:12N 38°51' E 007°58'810.3
2014-Aug-30 04:24N 38°50' E 008°09'1210.7
2014-Aug-30 03:17N 38°50' E 008°24'810.8
2014-Aug-30 02:33N 38°50' E 008°34'1110.9
2014-Aug-30 01:33N 38°50' E 008°48'1110.5
2014-Aug-30 00:33N 38°55' E 009°00'10 9.9
2014-Aug-29 23:33N 39°03' E 009°07'9 9.4
2014-Aug-29 22:33N 39°12' E 009°05'1 0.8
2014-Aug-29 21:31N 39°13' E 009°04'0 0.0
2014-Aug-29 20:31N 39°13' E 009°04'0 0.0
2014-Aug-29 19:31N 39°13' E 009°04'0 0.0
2014-Aug-29 18:31N 39°13' E 009°04'0 0.0
2014-Aug-29 17:31N 39°13' E 009°04'0 0.0
2014-Aug-29 16:31N 39°13' E 009°04'0 0.0
2014-Aug-29 15:31N 39°13' E 009°04'0 0.0
2014-Aug-29 14:31N 39°13' E 009°04'0 0.0
2014-Aug-29 13:31N 39°13' E 009°04'0 0.0
2014-Aug-29 12:31N 39°13' E 009°04'0 0.0
2014-Aug-29 11:31N 39°13' E 009°04'0 0.0
2014-Aug-29 10:31N 39°13' E 009°04'0 0.0
2014-Aug-29 09:31N 39°13' E 009°04'0 0.0
2014-Aug-29 08:33N 39°13' E 009°04'7 6.9
2014-Aug-29 07:33N 39°07' E 009°08'1111.5
2014-Aug-29 06:33N 39°02' E 009°22'88 2.2
2014-Aug-27 15:06N 38°28' E 011°05'711.7
2014-Aug-27 14:32N 38°30' E 010°57'1411.9
2014-Aug-27 13:23N 38°36' E 010°41'1011.8
2014-Aug-27 12:33N 38°39' E 010°29'1211.7
2014-Aug-27 11:33N 38°44' E 010°16'1511.5
2014-Aug-27 10:17N 38°50' E 009°58'911.4
2014-Aug-27 09:32N 38°53' E 009°48'1111.8
2014-Aug-27 08:33N 38°57' E 009°34'1312.3
2014-Aug-27 07:32N 39°03' E 009°20'1211.9
2014-Aug-27 06:33N 39°08' E 009°06'5 4.7
2014-Aug-27 05:33N 39°13' E 009°05'0 0.0
2014-Aug-27 04:33N 39°13' E 009°05'0 0.0
2014-Aug-27 03:33N 39°13' E 009°05'0 0.0
2014-Aug-27 02:33N 39°13' E 009°05'0 0.0
2014-Aug-27 01:33N 39°13' E 009°05'0 0.0
2014-Aug-27 00:33N 39°13' E 009°05'0 0.0
2014-Aug-26 23:33N 39°13' E 009°05'0 0.0
2014-Aug-26 22:33N 39°13' E 009°05'0 0.0
2014-Aug-26 21:33N 39°13' E 009°05'0 0.0
2014-Aug-26 20:33N 39°13' E 009°05'0 0.0
2014-Aug-26 19:33N 39°13' E 009°05'0 0.0
2014-Aug-26 18:33N 39°13' E 009°05'0 0.0
2014-Aug-26 17:33N 39°13' E 009°05'0 0.0
2014-Aug-26 16:33N 39°13' E 009°05'0 0.0
2014-Aug-26 15:33N 39°13' E 009°05'0 0.0
2014-Aug-26 14:33N 39°13' E 009°05'2 1.9
2014-Aug-26 13:34N 39°11' E 009°06'9 9.1
2014-Aug-26 12:34N 39°03' E 009°11'1212.0
2014-Aug-26 11:33N 38°53' E 009°19'1211.7
2014-Aug-26 10:33N 38°43' E 009°27'1211.5
2014-Aug-26 09:33N 38°33' E 009°34'1211.9
2014-Aug-26 08:33N 38°23' E 009°43'1211.8
2014-Aug-26 07:34N 38°13' E 009°50'1211.8
2014-Aug-26 06:33N 38°02' E 009°58'1211.8
2014-Aug-26 05:33N 37°52' E 010°06'1111.4
2014-Aug-26 04:33N 37°43' E 010°13'1211.7
2014-Aug-26 03:33N 37°32' E 010°19'1212.1
2014-Aug-26 02:34N 37°20' E 010°23'1211.9
2014-Aug-26 01:33N 37°09' E 010°27'1211.5
2014-Aug-26 00:33N 36°57' E 010°26'1010.4
2014-Aug-25 23:33N 36°48' E 010°21'4 3.1
2014-Aug-25 22:20N 36°48' E 010°16'0 0.0
2014-Aug-25 21:32N 36°48' E 010°16'0 0.0
2014-Aug-25 20:14N 36°48' E 010°16'0 0.0
2014-Aug-25 19:32N 36°48' E 010°16'0 0.0
2014-Aug-24 18:11N 36°48' E 010°16'0 0.0
2014-Aug-24 17:32N 36°48' E 010°16'7 0.4
2014-Aug-23 21:31N 36°47' E 010°25'0 0.0
2014-Aug-23 00:31N 36°47' E 010°25'  
Track history (hours):
 
Tides and Currents Weather Stations Pressure Air Temp Water Temp Dewpoint Dewpoint Depression Visibility Wind Speed Wind Dir Waves Ship Positions

Green Fast

Last reported at 2014-Sep-01 20:12 UTC. Time now 2014-Sep-01 21:28 UTC.
Position N 40°42' E 000°59'.

Length 118 m; draft 7.4 m.

Type: Ship (hazmat cat A). MMSI: 236294000.

Date/timePositionNaut miles runAvg speedWind from/ knotsBaromVisibWave heightAir tempDewpointWater temp
2014-Sep-01 20:12N 40°42' E 000°59'2011.4
2014-Sep-01 18:28N 40°24' E 000°48'1211.6
2014-Sep-01 17:26N 40°15' E 000°38'1110.8
2014-Sep-01 16:23N 40°06' E 000°28'1411.1
2014-Sep-01 15:10N 39°55' E 000°17'811.1
2014-Sep-01 14:25N 39°49' E 000°10'910.5
2014-Sep-01 13:32N 39°42' E 000°03'1110.9
2014-Sep-01 12:33N 39°34' W 000°06'1110.8
2014-Sep-01 11:33N 39°26' W 000°16'3 3.0
2014-Sep-01 10:31N 39°27' W 000°19'0 0.0
2014-Sep-01 09:31N 39°27' W 000°19'0 0.0
2014-Sep-01 08:31N 39°27' W 000°19'0 0.0
2014-Sep-01 07:31N 39°27' W 000°19'0 0.0
2014-Sep-01 06:31N 39°27' W 000°19'0 0.0
2014-Sep-01 05:31N 39°27' W 000°19'0 0.0
2014-Sep-01 04:31N 39°27' W 000°19'0 0.5
2014-Sep-01 03:33N 39°27' W 000°19'4 3.9
2014-Sep-01 02:28N 39°24' W 000°15'0 0.0
2014-Sep-01 00:31N 39°24' W 000°15'0 0.0
2014-Aug-31 23:31N 39°24' W 000°15'0 0.0
2014-Aug-31 20:10N 39°24' W 000°15'0 0.0
2014-Aug-31 19:22N 39°24' W 000°15'0 0.0
2014-Aug-31 18:28N 39°24' W 000°15'1 1.4
2014-Aug-31 17:33N 39°23' W 000°14'6310.4
2014-Aug-31 11:28N 39°15' E 001°07'1010.3
2014-Aug-31 10:31N 39°13' E 001°19'1010.4
2014-Aug-31 09:33N 39°11' E 001°32'1110.5
2014-Aug-31 08:33N 39°10' E 001°46'1010.5
2014-Aug-31 07:33N 39°08' E 001°59'1110.5
2014-Aug-31 06:33N 39°07' E 002°13'1110.7
2014-Aug-31 05:33N 39°05' E 002°26'1110.9
2014-Aug-31 04:33N 39°03' E 002°40'1110.9
2014-Aug-31 03:33N 39°02' E 002°54'1110.8
2014-Aug-31 02:33N 39°01' E 003°08'1110.6
2014-Aug-31 01:33N 39°00' E 003°22'1010.5
2014-Aug-31 00:33N 38°60' E 003°35'1010.4
2014-Aug-30 23:33N 38°59' E 003°48'1010.4
2014-Aug-30 22:33N 38°59' E 004°02'1010.2
2014-Aug-30 21:32N 38°58' E 004°15'1210.7
2014-Aug-30 20:27N 38°58' E 004°30'22 9.9
2014-Aug-30 18:13N 38°57' E 004°58'710.3
2014-Aug-30 17:32N 38°57' E 005°07'1110.5
2014-Aug-30 16:32N 38°56' E 005°21'1010.6
2014-Aug-30 15:33N 38°56' E 005°34'2210.9
2014-Aug-30 13:30N 38°55' E 006°03'1111.1
2014-Aug-30 12:32N 38°54' E 006°17'1111.2
2014-Aug-30 11:33N 38°54' E 006°31'1111.2
2014-Aug-30 10:33N 38°53' E 006°45'1111.1
2014-Aug-30 09:33N 38°53' E 006°59'1111.0
2014-Aug-30 08:33N 38°52' E 007°14'1510.5
2014-Aug-30 07:10N 38°52' E 007°32'610.6
2014-Aug-30 06:33N 38°51' E 007°41'1410.1
2014-Aug-30 05:12N 38°51' E 007°58'810.3
2014-Aug-30 04:24N 38°50' E 008°09'1210.7
2014-Aug-30 03:17N 38°50' E 008°24'810.8
2014-Aug-30 02:33N 38°50' E 008°34'1110.9
2014-Aug-30 01:33N 38°50' E 008°48'1110.5
2014-Aug-30 00:33N 38°55' E 009°00'10 9.9
2014-Aug-29 23:33N 39°03' E 009°07'9 9.4
2014-Aug-29 22:33N 39°12' E 009°05'1 0.8
2014-Aug-29 21:31N 39°13' E 009°04'0 0.0
2014-Aug-29 20:31N 39°13' E 009°04'0 0.0
2014-Aug-29 19:31N 39°13' E 009°04'0 0.0
2014-Aug-29 18:31N 39°13' E 009°04'0 0.0
2014-Aug-29 17:31N 39°13' E 009°04'0 0.0
2014-Aug-29 16:31N 39°13' E 009°04'0 0.0
2014-Aug-29 15:31N 39°13' E 009°04'0 0.0
2014-Aug-29 14:31N 39°13' E 009°04'0 0.0
2014-Aug-29 13:31N 39°13' E 009°04'0 0.0
2014-Aug-29 12:31N 39°13' E 009°04'0 0.0
2014-Aug-29 11:31N 39°13' E 009°04'0 0.0
2014-Aug-29 10:31N 39°13' E 009°04'0 0.0
2014-Aug-29 09:31N 39°13' E 009°04'0 0.0
2014-Aug-29 08:33N 39°13' E 009°04'7 6.9
2014-Aug-29 07:33N 39°07' E 009°08'1111.5
2014-Aug-29 06:33N 39°02' E 009°22'88 2.2
2014-Aug-27 15:06N 38°28' E 011°05'711.7
2014-Aug-27 14:32N 38°30' E 010°57'1411.9
2014-Aug-27 13:23N 38°36' E 010°41'1011.8
2014-Aug-27 12:33N 38°39' E 010°29'1211.7
2014-Aug-27 11:33N 38°44' E 010°16'1511.5
2014-Aug-27 10:17N 38°50' E 009°58'911.4
2014-Aug-27 09:32N 38°53' E 009°48'1111.8
2014-Aug-27 08:33N 38°57' E 009°34'1312.3
2014-Aug-27 07:32N 39°03' E 009°20'1211.9
2014-Aug-27 06:33N 39°08' E 009°06'5 4.7
2014-Aug-27 05:33N 39°13' E 009°05'0 0.0
2014-Aug-27 04:33N 39°13' E 009°05'0 0.0
2014-Aug-27 03:33N 39°13' E 009°05'0 0.0
2014-Aug-27 02:33N 39°13' E 009°05'0 0.0
2014-Aug-27 01:33N 39°13' E 009°05'0 0.0
2014-Aug-27 00:33N 39°13' E 009°05'0 0.0
2014-Aug-26 23:33N 39°13' E 009°05'0 0.0
2014-Aug-26 22:33N 39°13' E 009°05'0 0.0
2014-Aug-26 21:33N 39°13' E 009°05'0 0.0
2014-Aug-26 20:33N 39°13' E 009°05'0 0.0
2014-Aug-26 19:33N 39°13' E 009°05'0 0.0
2014-Aug-26 18:33N 39°13' E 009°05'0 0.0
2014-Aug-26 17:33N 39°13' E 009°05'0 0.0
2014-Aug-26 16:33N 39°13' E 009°05'0 0.0
2014-Aug-26 15:33N 39°13' E 009°05'0 0.0
2014-Aug-26 14:33N 39°13' E 009°05'2 1.9
2014-Aug-26 13:34N 39°11' E 009°06'9 9.1
2014-Aug-26 12:34N 39°03' E 009°11'1212.0
2014-Aug-26 11:33N 38°53' E 009°19'1211.7
2014-Aug-26 10:33N 38°43' E 009°27'1211.5
2014-Aug-26 09:33N 38°33' E 009°34'1211.9
2014-Aug-26 08:33N 38°23' E 009°43'1211.8
2014-Aug-26 07:34N 38°13' E 009°50'1211.8
2014-Aug-26 06:33N 38°02' E 009°58'1211.8
2014-Aug-26 05:33N 37°52' E 010°06'1111.4
2014-Aug-26 04:33N 37°43' E 010°13'1211.7
2014-Aug-26 03:33N 37°32' E 010°19'1212.1
2014-Aug-26 02:34N 37°20' E 010°23'1211.9
2014-Aug-26 01:33N 37°09' E 010°27'1211.5
2014-Aug-26 00:33N 36°57' E 010°26'1010.4
2014-Aug-25 23:33N 36°48' E 010°21'4 3.1
2014-Aug-25 22:20N 36°48' E 010°16'0 0.0
2014-Aug-25 21:32N 36°48' E 010°16'0 0.0
2014-Aug-25 20:14N 36°48' E 010°16'0 0.0
2014-Aug-25 19:32N 36°48' E 010°16'0 0.0
2014-Aug-24 18:11N 36°48' E 010°16'0 0.0
2014-Aug-24 17:32N 36°48' E 010°16'7 0.4
2014-Aug-23 21:31N 36°47' E 010°25'0 0.0
2014-Aug-23 00:31N 36°47' E 010°25'  

Dump ship's entire track history